Ocean Sapphire — VRKL8 — position and weather

sailwx.info

Track history (hours):
 
Tides and Currents Weather Stations Pressure Air Temp Water Temp Dewpoint Dewpoint Depression Visibility Wind Speed Wind Dir Waves Ship Positions

Ocean Sapphire

Last reported at 2015-Jan-20 19:22 UTC. Time now 2015-Jan-27 08:23 UTC.
Position N 01°52' E 102°28'.

Length 229 m; draft 13.8 m.

Type: Cargo ship. MMSI: 477065400.

Date/timePositionNaut miles runAvg speedWind from/ knotsBaromVisibWave heightAir tempDewpointWater temp
2015-Jan-20 19:22N 01°52' E 102°28'1112.3
2015-Jan-20 18:29N 01°47' E 102°38'8310.1
2015-Jan-20 10:17N 01°13' E 103°53'5 7.0
2015-Jan-20 09:33N 01°16' E 103°56'1 1.0
2015-Jan-20 08:25N 01°17' E 103°57'0 0.0
2015-Jan-20 07:29N 01°17' E 103°57'0 0.0
2015-Jan-20 06:28N 01°17' E 103°57'0 0.0
2015-Jan-20 05:32N 01°17' E 103°57'0 0.0
2015-Jan-20 04:32N 01°17' E 103°57'0 0.1
2015-Jan-20 03:16N 01°17' E 103°56'0 0.1
2015-Jan-20 02:04N 01°17' E 103°56'0 0.1
2015-Jan-20 01:17N 01°17' E 103°56'0 0.0
2015-Jan-20 00:23N 01°17' E 103°56'0 0.0
2015-Jan-19 23:04N 01°17' E 103°56'0 0.0
2015-Jan-19 22:31N 01°17' E 103°56'0 0.0
2015-Jan-19 21:16N 01°17' E 103°56'0 0.0
2015-Jan-19 20:28N 01°17' E 103°56'0 0.0
2015-Jan-19 19:16N 01°17' E 103°56'0 0.0
2015-Jan-19 18:10N 01°17' E 103°56'0 0.0
2015-Jan-19 17:25N 01°17' E 103°56'0 0.0
2015-Jan-19 16:28N 01°17' E 103°56'0 0.0
2015-Jan-19 15:16N 01°17' E 103°56'0 0.0
2015-Jan-19 14:22N 01°17' E 103°56'0 0.0
2015-Jan-19 13:22N 01°17' E 103°56'0 0.0
2015-Jan-19 12:28N 01°17' E 103°56'0 0.0
2015-Jan-19 11:28N 01°17' E 103°56'0 0.1
2015-Jan-19 10:22N 01°17' E 103°56'0 0.2
2015-Jan-19 09:25N 01°17' E 103°57'0 0.0
2015-Jan-19 08:31N 01°17' E 103°57'0 0.0
2015-Jan-19 07:31N 01°17' E 103°57'0 0.0
2015-Jan-19 06:10N 01°17' E 103°57'0 0.0
2015-Jan-19 05:22N 01°17' E 103°57'0 0.0
2015-Jan-19 04:28N 01°17' E 103°57'0 0.0
2015-Jan-19 03:25N 01°17' E 103°57'0 0.1
2015-Jan-19 02:28N 01°17' E 103°57'0 0.1
2015-Jan-19 01:22N 01°17' E 103°56'0 0.1
2015-Jan-19 00:19N 01°17' E 103°56'0 0.0
2015-Jan-18 22:22N 01°17' E 103°56'0 0.0
2015-Jan-18 21:22N 01°17' E 103°56'0 0.0
2015-Jan-18 20:04N 01°17' E 103°56'0 0.0
2015-Jan-18 19:28N 01°17' E 103°56'0 0.0
2015-Jan-18 16:04N 01°17' E 103°56'0 0.0
2015-Jan-18 15:04N 01°17' E 103°56'0 0.0
2015-Jan-18 14:16N 01°17' E 103°56'0 0.0
2015-Jan-18 13:28N 01°17' E 103°56'0 0.0
2015-Jan-18 12:22N 01°17' E 103°56'0 0.0
2015-Jan-18 11:28N 01°17' E 103°56'0 0.0
2015-Jan-18 10:10N 01°17' E 103°56'0 0.2
2015-Jan-18 09:22N 01°17' E 103°57'0 0.1
2015-Jan-18 08:04N 01°17' E 103°57'0 0.0
2015-Jan-18 07:16N 01°17' E 103°57'0 0.0
2015-Jan-18 06:07N 01°17' E 103°57'0 0.0
2015-Jan-18 05:28N 01°17' E 103°57'0 0.0
2015-Jan-18 04:22N 01°17' E 103°57'0 0.1
2015-Jan-18 03:16N 01°17' E 103°57'3 3.0
2015-Jan-18 02:24N 01°16' E 103°59'5 5.5
2015-Jan-18 01:33N 01°16' E 104°04'6 6.2
2015-Jan-18 00:33N 01°17' E 104°10'6 6.1
2015-Jan-17 23:31N 01°18' E 104°16'  
2015-Jan-14 01:33S 03°46' E 114°29'1 1.0
2015-Jan-14 00:13S 03°45' E 114°29'0 0.0
2015-Jan-13 23:31S 03°45' E 114°29'0 0.0
2015-Jan-13 22:28S 03°45' E 114°29'0 0.0
2015-Jan-13 21:31S 03°45' E 114°29'0 0.0
2015-Jan-13 19:25S 03°45' E 114°29'0 0.1
2015-Jan-13 17:31S 03°45' E 114°30'0 0.1
2015-Jan-13 15:28S 03°45' E 114°29'0 0.0
2015-Jan-13 11:04S 03°45' E 114°29'0 0.0
2015-Jan-13 07:31S 03°45' E 114°30'0 0.0
2015-Jan-13 06:31S 03°45' E 114°30'0 0.0
2015-Jan-13 04:28S 03°45' E 114°30'0 0.0
2015-Jan-13 01:04S 03°45' E 114°29'0 0.0
2015-Jan-13 00:31S 03°45' E 114°29'0 0.1
2015-Jan-12 23:25S 03°45' E 114°29'0 0.1
2015-Jan-12 22:31S 03°45' E 114°29'0 0.0
2015-Jan-12 21:31S 03°45' E 114°29'0 0.1
2015-Jan-12 20:31S 03°45' E 114°29'0 0.1
2015-Jan-12 19:31S 03°45' E 114°29'0 0.1
2015-Jan-12 16:28S 03°45' E 114°30'0 0.1
2015-Jan-12 15:31S 03°45' E 114°30'0 0.0
2015-Jan-12 13:31S 03°45' E 114°29'0 0.0
2015-Jan-12 12:31S 03°45' E 114°29'0 0.0
2015-Jan-12 11:31S 03°45' E 114°29'0 0.0
2015-Jan-12 08:31S 03°45' E 114°30'0 0.0
2015-Jan-12 07:22S 03°45' E 114°30'0 0.1
2015-Jan-12 06:25S 03°45' E 114°29'0 0.0
2015-Jan-12 04:04S 03°45' E 114°29'0 0.0
2015-Jan-12 02:31S 03°45' E 114°29'0 0.0
2015-Jan-12 01:31S 03°45' E 114°29'0 0.0
2015-Jan-12 00:28S 03°45' E 114°29'0 0.0
2015-Jan-11 23:04S 03°45' E 114°29'0 0.0
2015-Jan-11 22:31S 03°45' E 114°29'0 0.0
2015-Jan-11 19:31S 03°45' E 114°29'0 0.0
2015-Jan-11 15:28S 03°45' E 114°30'0 0.0
2015-Jan-11 14:31S 03°45' E 114°30'0 0.0
2015-Jan-11 11:28S 03°45' E 114°29'0 0.0
2015-Jan-11 10:31S 03°45' E 114°29'0 0.0
2015-Jan-11 08:16S 03°45' E 114°30'0 0.0
2015-Jan-11 07:31S 03°45' E 114°30'0 0.1
2015-Jan-11 05:19S 03°45' E 114°29'0 0.0
2015-Jan-11 04:04S 03°45' E 114°29'0 0.0
2015-Jan-11 03:31S 03°45' E 114°29'0 0.0
2015-Jan-11 02:31S 03°45' E 114°29'0 0.1
2015-Jan-11 01:27S 03°45' E 114°29'0 0.1
2015-Jan-11 00:31S 03°45' E 114°29'0 0.0
2015-Jan-10 23:34S 03°45' E 114°29'0 0.0
2015-Jan-10 22:30S 03°45' E 114°29'0 0.1
2015-Jan-10 21:31S 03°45' E 114°30'0 0.0
2015-Jan-10 20:34S 03°45' E 114°30'0 0.0
2015-Jan-10 19:33S 03°45' E 114°30'  
Track history (hours):
 
Tides and Currents Weather Stations Pressure Air Temp Water Temp Dewpoint Dewpoint Depression Visibility Wind Speed Wind Dir Waves Ship Positions

Ocean Sapphire

Last reported at 2015-Jan-20 19:22 UTC. Time now 2015-Jan-27 08:23 UTC.
Position N 01°52' E 102°28'.

Length 229 m; draft 13.8 m.

Type: Cargo ship. MMSI: 477065400.

Date/timePositionNaut miles runAvg speedWind from/ knotsBaromVisibWave heightAir tempDewpointWater temp
2015-Jan-20 19:22N 01°52' E 102°28'1112.3
2015-Jan-20 18:29N 01°47' E 102°38'8310.1
2015-Jan-20 10:17N 01°13' E 103°53'5 7.0
2015-Jan-20 09:33N 01°16' E 103°56'1 1.0
2015-Jan-20 08:25N 01°17' E 103°57'0 0.0
2015-Jan-20 07:29N 01°17' E 103°57'0 0.0
2015-Jan-20 06:28N 01°17' E 103°57'0 0.0
2015-Jan-20 05:32N 01°17' E 103°57'0 0.0
2015-Jan-20 04:32N 01°17' E 103°57'0 0.1
2015-Jan-20 03:16N 01°17' E 103°56'0 0.1
2015-Jan-20 02:04N 01°17' E 103°56'0 0.1
2015-Jan-20 01:17N 01°17' E 103°56'0 0.0
2015-Jan-20 00:23N 01°17' E 103°56'0 0.0
2015-Jan-19 23:04N 01°17' E 103°56'0 0.0
2015-Jan-19 22:31N 01°17' E 103°56'0 0.0
2015-Jan-19 21:16N 01°17' E 103°56'0 0.0
2015-Jan-19 20:28N 01°17' E 103°56'0 0.0
2015-Jan-19 19:16N 01°17' E 103°56'0 0.0
2015-Jan-19 18:10N 01°17' E 103°56'0 0.0
2015-Jan-19 17:25N 01°17' E 103°56'0 0.0
2015-Jan-19 16:28N 01°17' E 103°56'0 0.0
2015-Jan-19 15:16N 01°17' E 103°56'0 0.0
2015-Jan-19 14:22N 01°17' E 103°56'0 0.0
2015-Jan-19 13:22N 01°17' E 103°56'0 0.0
2015-Jan-19 12:28N 01°17' E 103°56'0 0.0
2015-Jan-19 11:28N 01°17' E 103°56'0 0.1
2015-Jan-19 10:22N 01°17' E 103°56'0 0.2
2015-Jan-19 09:25N 01°17' E 103°57'0 0.0
2015-Jan-19 08:31N 01°17' E 103°57'0 0.0
2015-Jan-19 07:31N 01°17' E 103°57'0 0.0
2015-Jan-19 06:10N 01°17' E 103°57'0 0.0
2015-Jan-19 05:22N 01°17' E 103°57'0 0.0
2015-Jan-19 04:28N 01°17' E 103°57'0 0.0
2015-Jan-19 03:25N 01°17' E 103°57'0 0.1
2015-Jan-19 02:28N 01°17' E 103°57'0 0.1
2015-Jan-19 01:22N 01°17' E 103°56'0 0.1
2015-Jan-19 00:19N 01°17' E 103°56'0 0.0
2015-Jan-18 22:22N 01°17' E 103°56'0 0.0
2015-Jan-18 21:22N 01°17' E 103°56'0 0.0
2015-Jan-18 20:04N 01°17' E 103°56'0 0.0
2015-Jan-18 19:28N 01°17' E 103°56'0 0.0
2015-Jan-18 16:04N 01°17' E 103°56'0 0.0
2015-Jan-18 15:04N 01°17' E 103°56'0 0.0
2015-Jan-18 14:16N 01°17' E 103°56'0 0.0
2015-Jan-18 13:28N 01°17' E 103°56'0 0.0
2015-Jan-18 12:22N 01°17' E 103°56'0 0.0
2015-Jan-18 11:28N 01°17' E 103°56'0 0.0
2015-Jan-18 10:10N 01°17' E 103°56'0 0.2
2015-Jan-18 09:22N 01°17' E 103°57'0 0.1
2015-Jan-18 08:04N 01°17' E 103°57'0 0.0
2015-Jan-18 07:16N 01°17' E 103°57'0 0.0
2015-Jan-18 06:07N 01°17' E 103°57'0 0.0
2015-Jan-18 05:28N 01°17' E 103°57'0 0.0
2015-Jan-18 04:22N 01°17' E 103°57'0 0.1
2015-Jan-18 03:16N 01°17' E 103°57'3 3.0
2015-Jan-18 02:24N 01°16' E 103°59'5 5.5
2015-Jan-18 01:33N 01°16' E 104°04'6 6.2
2015-Jan-18 00:33N 01°17' E 104°10'6 6.1
2015-Jan-17 23:31N 01°18' E 104°16'  
2015-Jan-14 01:33S 03°46' E 114°29'1 1.0
2015-Jan-14 00:13S 03°45' E 114°29'0 0.0
2015-Jan-13 23:31S 03°45' E 114°29'0 0.0
2015-Jan-13 22:28S 03°45' E 114°29'0 0.0
2015-Jan-13 21:31S 03°45' E 114°29'0 0.0
2015-Jan-13 19:25S 03°45' E 114°29'0 0.1
2015-Jan-13 17:31S 03°45' E 114°30'0 0.1
2015-Jan-13 15:28S 03°45' E 114°29'0 0.0
2015-Jan-13 11:04S 03°45' E 114°29'0 0.0
2015-Jan-13 07:31S 03°45' E 114°30'0 0.0
2015-Jan-13 06:31S 03°45' E 114°30'0 0.0
2015-Jan-13 04:28S 03°45' E 114°30'0 0.0
2015-Jan-13 01:04S 03°45' E 114°29'0 0.0
2015-Jan-13 00:31S 03°45' E 114°29'0 0.1
2015-Jan-12 23:25S 03°45' E 114°29'0 0.1
2015-Jan-12 22:31S 03°45' E 114°29'0 0.0
2015-Jan-12 21:31S 03°45' E 114°29'0 0.1
2015-Jan-12 20:31S 03°45' E 114°29'0 0.1
2015-Jan-12 19:31S 03°45' E 114°29'0 0.1
2015-Jan-12 16:28S 03°45' E 114°30'0 0.1
2015-Jan-12 15:31S 03°45' E 114°30'0 0.0
2015-Jan-12 13:31S 03°45' E 114°29'0 0.0
2015-Jan-12 12:31S 03°45' E 114°29'0 0.0
2015-Jan-12 11:31S 03°45' E 114°29'0 0.0
2015-Jan-12 08:31S 03°45' E 114°30'0 0.0
2015-Jan-12 07:22S 03°45' E 114°30'0 0.1
2015-Jan-12 06:25S 03°45' E 114°29'0 0.0
2015-Jan-12 04:04S 03°45' E 114°29'0 0.0
2015-Jan-12 02:31S 03°45' E 114°29'0 0.0
2015-Jan-12 01:31S 03°45' E 114°29'0 0.0
2015-Jan-12 00:28S 03°45' E 114°29'0 0.0
2015-Jan-11 23:04S 03°45' E 114°29'0 0.0
2015-Jan-11 22:31S 03°45' E 114°29'0 0.0
2015-Jan-11 19:31S 03°45' E 114°29'0 0.0
2015-Jan-11 15:28S 03°45' E 114°30'0 0.0
2015-Jan-11 14:31S 03°45' E 114°30'0 0.0
2015-Jan-11 11:28S 03°45' E 114°29'0 0.0
2015-Jan-11 10:31S 03°45' E 114°29'0 0.0
2015-Jan-11 08:16S 03°45' E 114°30'0 0.0
2015-Jan-11 07:31S 03°45' E 114°30'0 0.1
2015-Jan-11 05:19S 03°45' E 114°29'0 0.0
2015-Jan-11 04:04S 03°45' E 114°29'0 0.0
2015-Jan-11 03:31S 03°45' E 114°29'0 0.0
2015-Jan-11 02:31S 03°45' E 114°29'0 0.1
2015-Jan-11 01:27S 03°45' E 114°29'0 0.1
2015-Jan-11 00:31S 03°45' E 114°29'0 0.0
2015-Jan-10 23:34S 03°45' E 114°29'0 0.0
2015-Jan-10 22:30S 03°45' E 114°29'0 0.1
2015-Jan-10 21:31S 03°45' E 114°30'0 0.0
2015-Jan-10 20:34S 03°45' E 114°30'0 0.0
2015-Jan-10 19:33S 03°45' E 114°30'  

Dump ship's entire track history